Time;durP1;ratioP1;P1;durP2;ratioP2;P2;SDS_P1;SDS_P2;PMS_P1;PMS_P2;Temp;Humidity;BMP_temperature;BMP_pressure;BME280_temperature;BME280_humidity;BME280_pressure;Samples;Min_cycle;Max_cycle;Signal;HPM_P1;HPM_P2
2021/09/11 00:01:23;;;;;;;33.47;24.67;;;18.50;98.20;;;;;;5031841;28;20482;-76
2021/09/11 00:03:48;;;;;;;34.63;24.20;;;18.50;98.50;;;;;;5016371;28;20069;-76
2021/09/11 00:06:14;;;;;;;35.67;24.38;;;18.40;98.20;;;;;;5015382;28;20056;-77
2021/09/11 00:08:40;;;;;;;35.17;23.77;;;18.50;98.20;;;;;;5016578;28;20056;-81
2021/09/11 00:11:05;;;;;;;35.28;24.73;;;18.40;98.20;;;;;;4998926;28;20439;-80
2021/09/11 00:13:31;;;;;;;39.28;26.02;;;18.40;98.10;;;;;;5016468;28;20034;-80
2021/09/11 00:15:57;;;;;;;39.50;25.48;;;18.40;98.20;;;;;;5031522;28;20018;-80
2021/09/11 00:18:22;;;;;;;36.60;24.33;;;18.40;98.30;;;;;;4998791;28;20037;-81
2021/09/11 00:20:48;;;;;;;33.83;23.30;;;18.30;98.30;;;;;;5016293;28;20037;-81
2021/09/11 00:23:14;;;;;;;30.73;23.02;;;18.30;98.20;;;;;;4998973;28;20034;-81
2021/09/11 00:25:41;;;;;;;37.53;24.25;;;18.30;98.20;;;;;;5016071;28;20033;-81
2021/09/11 00:28:07;;;;;;;32.10;23.35;;;18.30;98.20;;;;;;5015094;28;20057;-81
2021/09/11 00:30:32;;;;;;;28.02;20.98;;;18.30;98.20;;;;;;5016077;28;20034;-76
2021/09/11 00:32:58;;;;;;;33.47;23.48;;;18.20;98.10;;;;;;5013399;28;20034;-76
2021/09/11 00:35:24;;;;;;;28.77;20.42;;;18.20;98.10;;;;;;5034675;28;20389;-77
2021/09/11 00:37:49;;;;;;;33.13;22.60;;;18.20;98.20;;;;;;5034269;28;20045;-77
2021/09/11 00:40:17;;;;;;;29.90;19.48;;;18.20;98.20;;;;;;5034116;28;20028;-76
2021/09/11 00:42:49;;;;;;;28.63;20.55;;;18.10;98.20;;;;;;5035720;28;20029;-76
2021/09/11 00:45:17;;;;;;;26.05;18.92;;;18.10;98.30;;;;;;5034381;28;20039;-77
2021/09/11 00:47:43;;;;;;;27.65;20.45;;;18.20;98.30;;;;;;5035421;28;20052;-77
2021/09/11 00:50:10;;;;;;;29.52;19.27;;;18.10;98.30;;;;;;5035344;28;20030;-77
2021/09/11 00:52:40;;;;;;;27.65;18.92;;;18.10;98.60;;;;;;5034407;28;20025;-77
2021/09/11 00:55:08;;;;;;;28.13;18.30;;;18.10;98.30;;;;;;5034306;28;20091;-76
2021/09/11 00:57:35;;;;;;;30.15;20.23;;;18.20;98.40;;;;;;5035711;28;20067;-77
2021/09/11 01:00:02;;;;;;;27.45;18.35;;;18.20;98.30;;;;;;5035552;28;20021;-77
2021/09/11 01:02:28;;;;;;;26.67;18.80;;;18.20;98.30;;;;;;5033982;28;20029;-77
2021/09/11 01:04:54;;;;;;;27.10;18.25;;;18.20;98.30;;;;;;5017556;28;20041;-76
2021/09/11 01:07:19;;;;;;;29.52;18.55;;;18.20;98.30;;;;;;5034087;28;20132;-77
2021/09/11 01:09:45;;;;;;;22.25;16.52;;;18.20;98.20;;;;;;5033790;28;20029;-77
2021/09/11 01:12:11;;;;;;;24.63;17.60;;;18.20;98.20;;;;;;5017289;28;20025;-76
2021/09/11 01:14:36;;;;;;;25.55;18.27;;;18.00;98.10;;;;;;5033857;28;20029;-77
2021/09/11 01:17:02;;;;;;;25.55;18.42;;;18.10;98.00;;;;;;5035134;28;20021;-78
2021/09/11 01:19:28;;;;;;;26.50;18.75;;;18.00;98.00;;;;;;5033701;28;20036;-77
2021/09/11 01:21:53;;;;;;;25.88;17.95;;;18.00;97.90;;;;;;5034148;28;20025;-78
2021/09/11 01:24:19;;;;;;;26.38;17.27;;;18.00;97.90;;;;;;5033635;28;20080;-77
2021/09/11 01:26:49;;;;;;;26.45;18.40;;;17.90;97.80;;;;;;5033486;28;20033;-78
2021/09/11 01:29:15;;;;;;;24.35;16.88;;;17.90;97.70;;;;;;5033640;28;20489;-77
2021/09/11 01:31:41;;;;;;;23.48;15.43;;;17.90;97.70;;;;;;5034775;28;20036;-79
2021/09/11 01:34:06;;;;;;;25.85;16.60;;;17.80;97.70;;;;;;5034641;28;20083;-80
2021/09/11 01:36:32;;;;;;;23.38;15.88;;;17.70;97.60;;;;;;5033380;28;20478;-79
2021/09/11 01:38:58;;;;;;;25.65;15.63;;;17.70;97.60;;;;;;5033387;28;20474;-78
2021/09/11 01:41:23;;;;;;;25.23;17.27;;;17.70;97.60;;;;;;5033132;28;20373;-80
2021/09/11 01:43:49;;;;;;;23.55;16.17;;;17.70;97.50;;;;;;5016785;28;20029;-79
2021/09/11 01:46:15;;;;;;;25.83;17.65;;;17.60;97.50;;;;;;5016593;28;20029;-82
2021/09/11 01:48:40;;;;;;;23.67;16.20;;;17.60;97.50;;;;;;5033142;28;20033;-79
2021/09/11 01:51:06;;;;;;;25.13;15.45;;;17.50;97.50;;;;;;5033162;28;20470;-80
2021/09/11 01:53:32;;;;;;;24.63;15.30;;;17.60;97.60;;;;;;5033028;28;20029;-80
2021/09/11 01:55:58;;;;;;;23.80;16.23;;;17.50;97.50;;;;;;5034277;28;20497;-79
2021/09/11 01:58:26;;;;;;;24.42;15.93;;;17.50;97.50;;;;;;5032934;28;20050;-80
2021/09/11 02:00:51;;;;;;;24.58;16.60;;;17.50;97.50;;;;;;5016776;28;20026;-80
2021/09/11 02:03:17;;;;;;;27.77;17.02;;;17.50;97.60;;;;;;5033082;28;20041;-80
2021/09/11 02:05:43;;;;;;;26.50;16.58;;;17.40;97.60;;;;;;5015863;28;20028;-80
2021/09/11 02:08:08;;;;;;;28.60;19.92;;;17.40;97.90;;;;;;5016116;28;20489;-80
2021/09/11 02:10:35;;;;;;;26.45;17.05;;;17.40;97.60;;;;;;5007570;28;20053;-79
2021/09/11 02:13:00;;;;;;;27.52;18.75;;;17.30;97.60;;;;;;5019926;28;20018;-81
2021/09/11 02:15:26;;;;;;;23.70;15.55;;;17.30;97.60;;;;;;4996425;28;20026;-80
2021/09/11 02:17:52;;;;;;;25.55;16.20;;;17.30;97.60;;;;;;5013862;28;20121;-82
2021/09/11 02:20:17;;;;;;;23.67;16.52;;;17.30;97.90;;;;;;4996479;28;20060;-79
2021/09/11 02:22:43;;;;;;;26.52;17.30;;;17.30;97.60;;;;;;5012880;28;20030;-81
2021/09/11 02:25:10;;;;;;;27.20;18.00;;;17.30;97.70;;;;;;5011301;28;20034;-79
2021/09/11 02:27:36;;;;;;;25.85;16.10;;;17.20;97.60;;;;;;4976796;28;20038;-80
2021/09/11 02:30:03;;;;;;;23.40;14.60;;;17.20;97.60;;;;;;4976506;28;20483;-80
2021/09/11 02:32:28;;;;;;;21.95;14.23;;;17.20;97.60;;;;;;4976871;28;20022;-81
2021/09/11 02:34:54;;;;;;;26.15;14.98;;;17.20;97.60;;;;;;4994318;28;20037;-79
2021/09/11 02:37:20;;;;;;;24.25;14.25;;;17.20;97.60;;;;;;4976811;28;20022;-80
2021/09/11 02:39:45;;;;;;;22.13;14.05;;;17.20;97.50;;;;;;4993076;28;20026;-78
2021/09/11 02:42:11;;;;;;;21.63;14.07;;;17.10;97.50;;;;;;4994157;28;20399;-80
2021/09/11 02:44:37;;;;;;;21.80;14.23;;;17.10;97.50;;;;;;4992933;28;20113;-79
2021/09/11 02:47:03;;;;;;;23.23;15.55;;;17.00;97.60;;;;;;4976659;28;20026;-79
2021/09/11 02:49:29;;;;;;;23.60;14.73;;;17.00;97.50;;;;;;4976654;28;20041;-79
2021/09/11 02:51:55;;;;;;;22.60;14.05;;;17.00;97.50;;;;;;4992797;28;20033;-80
2021/09/11 02:54:20;;;;;;;25.40;15.85;;;17.00;97.50;;;;;;4960557;28;20118;-80
2021/09/11 02:56:46;;;;;;;23.95;15.57;;;17.00;97.50;;;;;;4992835;28;20117;-81
2021/09/11 02:59:12;;;;;;;26.25;15.10;;;16.90;97.50;;;;;;5009128;28;20026;-79
2021/09/11 03:01:37;;;;;;;26.05;15.88;;;16.90;97.50;;;;;;4994115;28;20027;-79
2021/09/11 03:04:03;;;;;;;23.90;14.20;;;16.90;97.80;;;;;;4960390;28;20490;-79
2021/09/11 03:06:29;;;;;;;27.88;16.15;;;16.90;97.50;;;;;;4976795;28;20449;-80
2021/09/11 03:08:54;;;;;;;24.23;15.55;;;16.90;97.50;;;;;;4992868;28;20049;-80
2021/09/11 03:11:20;;;;;;;23.40;15.73;;;16.90;97.50;;;;;;4976458;28;20034;-79
2021/09/11 03:13:46;;;;;;;25.00;16.10;;;16.80;97.80;;;;;;4992691;28;20027;-79
2021/09/11 03:16:12;;;;;;;22.00;15.50;;;16.80;97.50;;;;;;4976651;28;20146;-77
2021/09/11 03:18:38;;;;;;;27.63;17.27;;;16.80;97.40;;;;;;4994862;28;20069;-82
2021/09/11 03:21:04;;;;;;;26.52;16.45;;;16.80;97.50;;;;;;4964335;28;20053;-80
2021/09/11 03:23:30;;;;;;;26.80;15.93;;;16.70;97.50;;;;;;4980290;28;20466;-81
2021/09/11 03:25:56;;;;;;;25.10;15.02;;;16.70;97.50;;;;;;4996355;28;20117;-79
2021/09/11 03:28:21;;;;;;;27.77;16.13;;;16.70;97.50;;;;;;4964061;28;20047;-80
2021/09/11 03:30:47;;;;;;;22.70;16.50;;;16.70;97.50;;;;;;4996337;28;20038;-79
2021/09/11 03:33:13;;;;;;;26.63;15.32;;;16.70;97.50;;;;;;5012668;28;20034;-79
2021/09/11 03:35:39;;;;;;;23.92;16.17;;;16.70;97.50;;;;;;4980050;28;20026;-79
2021/09/11 03:38:04;;;;;;;28.70;17.10;;;16.60;97.50;;;;;;5012601;28;20022;-79
2021/09/11 03:40:30;;;;;;;28.95;16.02;;;16.70;97.50;;;;;;5012498;28;20030;-79
2021/09/11 03:42:56;;;;;;;25.90;16.90;;;16.60;97.40;;;;;;4979873;28;20149;-79
2021/09/11 03:45:21;;;;;;;26.27;16.15;;;16.70;97.50;;;;;;4996177;28;20038;-85
2021/09/11 03:47:47;;;;;;;28.13;16.58;;;16.60;97.50;;;;;;4996178;28;20491;-84
2021/09/11 03:50:13;;;;;;;28.48;16.40;;;16.60;97.50;;;;;;4979883;28;20023;-85
2021/09/11 03:52:38;;;;;;;25.38;16.33;;;16.60;97.50;;;;;;4997111;28;20519;-86
2021/09/11 03:55:05;;;;;;;29.50;19.42;;;16.50;97.50;;;;;;4998521;28;20084;-84
2021/09/11 03:57:32;;;;;;;28.65;18.77;;;16.50;97.50;;;;;;4998939;28;20028;-85
2021/09/11 03:59:57;;;;;;;30.33;18.25;;;16.50;97.80;;;;;;4998862;28;20478;-84
2021/09/11 04:02:23;;;;;;;28.52;16.77;;;16.50;97.60;;;;;;4998862;28;20084;-84
2021/09/11 04:04:49;;;;;;;28.10;17.88;;;16.40;97.60;;;;;;4982751;28;20490;-85
2021/09/11 04:07:15;;;;;;;31.10;20.42;;;16.40;97.60;;;;;;5016659;28;20097;-84
2021/09/11 04:09:40;;;;;;;33.38;19.23;;;16.50;97.60;;;;;;5031743;28;20124;-85
2021/09/11 04:12:07;;;;;;;29.70;19.05;;;16.40;97.60;;;;;;4982673;28;20050;-84
2021/09/11 04:14:32;;;;;;;29.08;19.40;;;16.40;97.60;;;;;;4982519;28;20417;-83
2021/09/11 04:16:58;;;;;;;33.22;20.63;;;16.40;97.70;;;;;;4998712;28;20164;-85
2021/09/11 04:19:23;;;;;;;33.67;20.20;;;16.40;97.70;;;;;;4998685;28;20141;-79
2021/09/11 04:21:49;;;;;;;30.17;18.70;;;16.40;97.80;;;;;;4998792;28;20061;-84
2021/09/11 04:24:15;;;;;;;28.75;18.05;;;16.40;97.80;;;;;;4998427;28;20052;-86
2021/09/11 04:26:40;;;;;;;29.63;20.08;;;16.40;97.90;;;;;;4998913;28;20033;-83
2021/09/11 04:29:06;;;;;;;28.77;19.08;;;16.40;97.90;;;;;;5016060;28;20555;-85
2021/09/11 04:31:32;;;;;;;33.65;19.10;;;16.40;97.90;;;;;;4982094;28;20026;-84
2021/09/11 04:33:58;;;;;;;29.08;18.80;;;16.50;98.00;;;;;;4998418;28;20205;-84
2021/09/11 04:36:23;;;;;;;28.85;18.88;;;16.50;98.00;;;;;;4998433;28;20026;-84
2021/09/11 04:38:49;;;;;;;26.52;19.20;;;16.50;98.00;;;;;;5014818;28;20022;-84
2021/09/11 04:41:15;;;;;;;32.55;19.15;;;16.50;98.00;;;;;;4998342;28;20449;-85
2021/09/11 04:43:40;;;;;;;32.25;18.40;;;16.50;98.00;;;;;;5015814;28;20036;-85
2021/09/11 04:46:06;;;;;;;30.90;18.45;;;16.50;98.00;;;;;;5014661;28;20462;-84
2021/09/11 04:48:33;;;;;;;32.92;17.67;;;16.50;98.00;;;;;;4998510;28;20030;-84
2021/09/11 04:50:58;;;;;;;27.13;17.13;;;16.60;98.00;;;;;;5014280;28;20467;-84
2021/09/11 04:53:24;;;;;;;32.60;18.45;;;16.60;98.00;;;;;;5015527;28;20064;-85
2021/09/11 04:55:50;;;;;;;29.45;18.08;;;16.60;98.00;;;;;;4997978;28;20026;-84
2021/09/11 04:58:16;;;;;;;25.75;17.40;;;16.60;98.00;;;;;;4998169;28;20033;-83
2021/09/11 05:00:41;;;;;;;24.60;16.00;;;16.60;98.00;;;;;;5014151;28;20044;-84
2021/09/11 05:03:07;;;;;;;28.08;18.02;;;16.60;98.00;;;;;;5015338;28;20033;-84
2021/09/11 05:05:33;;;;;;;25.50;17.05;;;16.60;97.90;;;;;;4997825;28;20034;-84
2021/09/11 05:07:58;;;;;;;23.55;15.43;;;16.60;98.00;;;;;;5015107;28;20030;-84
2021/09/11 05:10:25;;;;;;;23.58;16.50;;;16.60;98.00;;;;;;5014071;28;20045;-81
2021/09/11 05:12:51;;;;;;;24.63;15.70;;;16.60;97.90;;;;;;5030862;28;20024;-83
2021/09/11 05:15:17;;;;;;;24.10;16.17;;;16.60;97.90;;;;;;5021804;28;20034;-81
2021/09/11 05:17:46;;;;;;;24.77;15.48;;;16.60;97.90;;;;;;5014427;28;20164;-84
2021/09/11 05:20:13;;;;;;;21.65;14.05;;;16.70;98.00;;;;;;5015698;28;20117;-84
2021/09/11 05:22:39;;;;;;;22.20;15.57;;;16.60;97.90;;;;;;5013614;28;20034;-84
2021/09/11 05:25:06;;;;;;;24.20;14.70;;;16.70;97.90;;;;;;5012027;28;20034;-84
2021/09/11 05:27:31;;;;;;;21.80;13.85;;;16.70;97.90;;;;;;5033731;28;20061;-84
2021/09/11 05:29:57;;;;;;;22.50;15.48;;;16.70;97.90;;;;;;5033141;28;20470;-83
2021/09/11 05:32:23;;;;;;;23.50;14.90;;;16.70;97.80;;;;;;5034006;28;20037;-81
2021/09/11 05:34:48;;;;;;;24.40;15.80;;;16.70;97.80;;;;;;5033392;28;20083;-77
2021/09/11 05:37:14;;;;;;;25.02;14.60;;;16.70;97.80;;;;;;5033060;28;20471;-78
2021/09/11 05:39:39;;;;;;;20.75;13.68;;;16.80;97.90;;;;;;5033279;28;20038;-83
2021/09/11 05:42:07;;;;;;;21.73;13.00;;;16.80;97.90;;;;;;5032484;28;20065;-77
2021/09/11 05:44:33;;;;;;;17.92;12.60;;;16.80;97.90;;;;;;5033319;28;20030;-78
2021/09/11 05:46:59;;;;;;;20.75;13.50;;;16.80;97.80;;;;;;5033141;28;20087;-78
2021/09/11 05:49:26;;;;;;;16.80;12.93;;;16.80;97.80;;;;;;5016304;28;20025;-83
2021/09/11 05:51:52;;;;;;;23.52;13.48;;;16.80;97.80;;;;;;5033048;28;20022;-80
2021/09/11 05:54:17;;;;;;;17.42;12.23;;;16.90;97.80;;;;;;5032798;28;20018;-84
2021/09/11 05:56:46;;;;;;;17.88;13.77;;;16.90;97.80;;;;;;5016750;28;20032;-83
2021/09/11 05:59:12;;;;;;;19.98;11.95;;;16.90;97.70;;;;;;5032836;28;20489;-82
2021/09/11 06:01:39;;;;;;;19.33;13.02;;;16.90;97.60;;;;;;5033912;28;20037;-80
2021/09/11 06:04:05;;;;;;;21.48;14.32;;;16.90;97.60;;;;;;5033001;28;20033;-82
2021/09/11 06:06:31;;;;;;;20.42;12.85;;;17.00;97.60;;;;;;5034445;28;20484;-83
2021/09/11 06:08:57;;;;;;;17.10;11.10;;;17.00;97.60;;;;;;5032882;28;20032;-82
2021/09/11 06:11:22;;;;;;;20.95;12.55;;;17.00;97.60;;;;;;5020745;28;20030;-81
2021/09/11 06:13:48;;;;;;;17.75;12.23;;;17.00;97.60;;;;;;4996470;28;20022;-82
2021/09/11 06:16:14;;;;;;;18.48;11.80;;;17.10;97.60;;;;;;4996286;28;20022;-82
2021/09/11 06:18:39;;;;;;;21.35;11.48;;;17.10;97.60;;;;;;5012207;28;20100;-81
2021/09/11 06:21:05;;;;;;;16.98;10.45;;;17.10;97.50;;;;;;5014065;28;20037;-83
2021/09/11 06:23:31;;;;;;;16.20;11.00;;;17.20;97.50;;;;;;5012788;28;20033;-82
2021/09/11 06:25:56;;;;;;;14.38;9.55;;;17.20;97.50;;;;;;5012677;28;20058;-81
2021/09/11 06:28:24;;;;;;;17.15;11.27;;;17.20;97.80;;;;;;5012616;28;20375;-81
2021/09/11 06:30:50;;;;;;;16.20;10.55;;;17.20;97.40;;;;;;5013806;28;20121;-84
2021/09/11 06:33:16;;;;;;;14.95;10.10;;;17.20;97.40;;;;;;5012250;28;20025;-82
2021/09/11 06:35:42;;;;;;;14.52;9.98;;;17.20;97.40;;;;;;5012499;28;20010;-80
2021/09/11 06:38:08;;;;;;;14.52;9.85;;;17.20;97.40;;;;;;5003916;28;20033;-80
2021/09/11 06:40:33;;;;;;;14.52;9.55;;;17.30;97.60;;;;;;4994854;28;20042;-80
2021/09/11 06:42:59;;;;;;;14.73;9.25;;;17.20;97.30;;;;;;4979802;28;20075;-80
2021/09/11 06:45:24;;;;;;;14.30;9.20;;;17.30;97.30;;;;;;5022735;28;20386;-81
2021/09/11 06:47:50;;;;;;;19.98;9.57;;;17.40;97.40;;;;;;5005534;28;20034;-80
2021/09/11 06:50:16;;;;;;;15.00;9.52;;;17.40;97.40;;;;;;5012224;28;20030;-81
2021/09/11 06:52:41;;;;;;;11.88;8.57;;;17.50;97.40;;;;;;5012588;28;20022;-80
2021/09/11 06:55:08;;;;;;;14.13;9.23;;;17.50;97.30;;;;;;5013594;28;20375;-80
2021/09/11 06:57:33;;;;;;;14.35;8.80;;;17.60;97.20;;;;;;4996280;28;20049;-80
2021/09/11 06:59:59;;;;;;;16.90;9.70;;;17.60;97.10;;;;;;4996320;28;20576;-80
2021/09/11 07:02:25;;;;;;;14.75;9.30;;;17.60;97.10;;;;;;5013344;28;20037;-81
2021/09/11 07:04:50;;;;;;;16.77;10.45;;;17.60;97.00;;;;;;5012237;28;20026;-82
2021/09/11 07:07:16;;;;;;;12.70;8.45;;;17.70;96.90;;;;;;5013086;28;20467;-82
2021/09/11 07:09:42;;;;;;;13.07;8.77;;;17.70;97.00;;;;;;5011998;28;20022;-81
2021/09/11 07:12:08;;;;;;;12.65;8.75;;;17.80;97.00;;;;;;5013548;28;20026;-81
2021/09/11 07:14:34;;;;;;;17.33;9.57;;;17.80;96.90;;;;;;5012058;28;20092;-82
2021/09/11 07:16:59;;;;;;;16.75;8.77;;;17.80;96.70;;;;;;5013209;28;20470;-81
2021/09/11 07:19:28;;;;;;;12.70;8.82;;;17.90;96.60;;;;;;5011802;28;20483;-79
2021/09/11 07:21:56;;;;;;;15.38;8.00;;;17.90;96.70;;;;;;5012850;28;20170;-81
2021/09/11 07:24:22;;;;;;;11.02;7.60;;;17.90;96.70;;;;;;5011829;28;20386;-80
2021/09/11 07:26:48;;;;;;;11.52;7.85;;;18.00;96.70;;;;;;5011814;28;20025;-81
2021/09/11 07:29:14;;;;;;;16.27;9.85;;;18.10;96.80;;;;;;4995597;28;20038;-82
2021/09/11 07:31:41;;;;;;;13.00;9.07;;;18.20;96.70;;;;;;4980728;28;20022;-81
2021/09/11 07:34:07;;;;;;;18.35;9.23;;;18.30;96.60;;;;;;5011825;28;20053;-81
2021/09/11 07:36:33;;;;;;;14.30;8.98;;;18.50;96.50;;;;;;5011738;28;20474;-81
2021/09/11 07:38:58;;;;;;;14.75;8.35;;;18.50;96.40;;;;;;5013208;28;20018;-81
2021/09/11 07:41:24;;;;;;;14.30;8.23;;;18.60;96.30;;;;;;5011940;28;20037;-81
2021/09/11 07:43:50;;;;;;;15.35;9.15;;;18.70;96.30;;;;;;5013100;28;20585;-80
2021/09/11 07:46:16;;;;;;;12.38;9.18;;;18.70;96.10;;;;;;5011741;28;20038;-81
2021/09/11 07:48:41;;;;;;;14.98;10.43;;;18.80;95.70;;;;;;5012036;28;20026;-82
2021/09/11 07:51:07;;;;;;;12.68;9.50;;;18.80;95.60;;;;;;5010861;28;20111;-82
2021/09/11 07:53:33;;;;;;;14.63;9.35;;;18.80;95.50;;;;;;5012106;28;20065;-82
2021/09/11 07:55:59;;;;;;;19.38;9.02;;;18.90;95.40;;;;;;5027459;28;20030;-78
2021/09/11 07:58:25;;;;;;;14.02;9.80;;;18.80;95.30;;;;;;4995670;28;20034;-81
2021/09/11 08:00:53;;;;;;;14.55;10.18;;;18.90;95.30;;;;;;4995224;28;20041;-82
2021/09/11 08:03:19;;;;;;;14.43;10.50;;;18.90;95.10;;;;;;5011517;28;20026;-81
2021/09/11 08:05:45;;;;;;;14.90;9.77;;;18.90;95.00;;;;;;5015384;28;20421;-80
2021/09/11 08:08:10;;;;;;;14.10;11.18;;;18.90;95.00;;;;;;5015082;28;20038;-80
2021/09/11 08:10:36;;;;;;;14.55;10.77;;;18.90;94.90;;;;;;5016304;28;20052;-80
2021/09/11 08:13:02;;;;;;;16.27;11.13;;;19.00;94.60;;;;;;4999031;28;20145;-82
2021/09/11 08:15:27;;;;;;;15.40;11.15;;;19.00;94.70;;;;;;5016306;28;20029;-82
2021/09/11 08:17:53;;;;;;;15.90;10.43;;;19.00;94.70;;;;;;5014934;28;20030;-82
2021/09/11 08:20:19;;;;;;;14.95;9.85;;;19.10;94.80;;;;;;5015139;28;20053;-79
2021/09/11 08:22:44;;;;;;;13.30;9.80;;;19.10;94.70;;;;;;5015165;28;20014;-82
2021/09/11 08:25:11;;;;;;;14.85;10.65;;;19.20;94.70;;;;;;5016209;28;20038;-81
2021/09/11 08:27:36;;;;;;;16.45;11.45;;;19.30;94.50;;;;;;5014936;28;20054;-81
2021/09/11 08:30:05;;;;;;;12.75;9.77;;;19.30;94.30;;;;;;5031075;28;20042;-82
2021/09/11 08:32:31;;;;;;;11.93;9.75;;;19.40;94.50;;;;;;5014548;28;20070;-79
2021/09/11 08:34:56;;;;;;;15.38;11.00;;;19.40;94.40;;;;;;5028535;28;20427;-80
2021/09/11 08:37:22;;;;;;;13.07;10.07;;;19.50;94.30;;;;;;5016817;28;20128;-82
2021/09/11 08:39:47;;;;;;;15.43;11.48;;;19.50;94.20;;;;;;5033922;28;20421;-83
2021/09/11 08:42:13;;;;;;;15.15;10.60;;;19.60;93.90;;;;;;5034147;28;20029;-83
2021/09/11 08:44:39;;;;;;;16.65;10.20;;;19.60;93.70;;;;;;5034536;28;20486;-81
2021/09/11 08:47:06;;;;;;;17.13;12.18;;;19.60;93.70;;;;;;5034066;28;20036;-82
2021/09/11 08:49:32;;;;;;;13.70;10.90;;;19.50;93.50;;;;;;5033274;28;20034;-82
2021/09/11 08:51:57;;;;;;;16.02;11.90;;;19.50;93.60;;;;;;5034176;28;20022;-82
2021/09/11 08:54:23;;;;;;;17.42;12.57;;;19.60;93.60;;;;;;5034283;28;20026;-82
2021/09/11 08:56:50;;;;;;;14.23;11.73;;;19.60;93.60;;;;;;5017586;28;20040;-82
2021/09/11 08:59:20;;;;;;;15.60;11.93;;;19.70;93.70;;;;;;5034100;28;20025;-81
2021/09/11 09:02:06;;;;;;;15.02;11.77;;;19.70;93.70;;;;;;5008683;28;20017;-82
2021/09/11 09:04:53;;;;;;;16.35;11.18;;;19.80;93.60;;;;;;5015509;28;20038;-83
2021/09/11 09:07:32;;;;;;;14.70;11.80;;;19.90;93.40;;;;;;5015340;28;20022;-80
2021/09/11 09:10:00;;;;;;;16.55;12.30;;;19.90;93.40;;;;;;5015564;28;20040;-82
2021/09/11 09:12:33;;;;;;;20.08;12.30;;;20.00;93.20;;;;;;5014060;28;20057;-80
2021/09/11 09:15:00;;;;;;;;;;;20.00;93.00;;;;;;5013798;28;20086;-79
2021/09/11 09:17:42;;;;;;;16.83;12.45;;;20.00;92.70;;;;;;5014752;28;19905;-80
2021/09/11 09:20:16;;;;;;;17.33;12.40;;;20.00;92.70;;;;;;5015236;28;20368;-82
2021/09/11 09:22:43;;;;;;;19.05;15.15;;;20.00;92.80;;;;;;5013391;28;20083;-82
2021/09/11 09:25:23;;;;;;;15.43;12.57;;;19.90;92.70;;;;;;5013747;28;20030;-83
2021/09/11 09:28:03;;;;;;;15.15;13.55;;;19.90;92.80;;;;;;5013460;28;20442;-79
2021/09/11 09:30:46;;;;;;;16.02;13.27;;;19.90;92.80;;;;;;5014628;28;20042;-81
2021/09/11 09:33:27;;;;;;;17.67;13.02;;;19.90;92.70;;;;;;5013477;28;20045;-82
2021/09/11 09:35:53;;;;;;;18.27;14.65;;;19.90;92.80;;;;;;5014595;28;20394;-81
2021/09/11 09:38:19;;;;;;;17.23;13.90;;;19.90;92.70;;;;;;5013889;28;20096;-82
2021/09/11 09:40:47;;;;;;;17.88;14.50;;;19.90;92.70;;;;;;5014489;28;20175;-80
2021/09/11 09:43:34;;;;;;;24.75;17.15;;;19.90;92.60;;;;;;5014711;28;20026;-83
2021/09/11 09:46:10;;;;;;;19.08;16.25;;;19.90;92.60;;;;;;5029824;28;20030;-83
2021/09/11 09:48:38;;;;;;;22.25;16.27;;;19.90;92.60;;;;;;5014551;28;20030;-76
2021/09/11 09:51:08;;;;;;;23.42;17.67;;;19.90;92.70;;;;;;5014506;28;20117;-77
2021/09/11 09:53:38;;;;;;;21.80;18.50;;;19.90;92.70;;;;;;5014127;28;20430;-77
2021/09/11 09:56:04;;;;;;;19.98;16.38;;;20.00;92.70;;;;;;5012763;28;20034;-78
2021/09/11 09:58:31;;;;;;;19.27;16.73;;;20.00;92.70;;;;;;5013104;28;20065;-77
2021/09/11 10:00:57;;;;;;;19.90;17.75;;;20.00;92.70;;;;;;5014297;28;20088;-78
2021/09/11 10:03:23;;;;;;;19.95;17.60;;;19.90;92.70;;;;;;5012963;28;20114;-77
2021/09/11 10:05:52;;;;;;;23.15;18.42;;;20.00;92.60;;;;;;5014208;28;20182;-78
2021/09/11 10:08:19;;;;;;;22.35;18.63;;;19.90;92.50;;;;;;5014083;28;20017;-77
2021/09/11 10:10:47;;;;;;;22.15;18.17;;;20.00;92.50;;;;;;4996506;28;20445;-77
2021/09/11 10:13:17;;;;;;;22.05;18.63;;;20.00;92.70;;;;;;5012855;28;20490;-76
2021/09/11 10:15:56;;;;;;;23.88;18.65;;;20.10;92.70;;;;;;5012533;28;20030;-77
2021/09/11 10:18:34;;;;;;;26.27;19.83;;;20.10;92.60;;;;;;5012792;28;20101;-77
2021/09/11 10:21:37;;;;;;;28.05;20.50;;;20.10;92.50;;;;;;5012493;28;20069;-76
2021/09/11 10:24:03;;;;;;;23.27;18.45;;;20.10;92.40;;;;;;5014077;28;20102;-77
2021/09/11 10:26:47;;;;;;;24.55;20.35;;;20.10;92.40;;;;;;5028882;28;20116;-77
2021/09/11 10:29:33;;;;;;;24.10;18.02;;;20.10;92.40;;;;;;5013858;28;20072;-77
2021/09/11 10:32:15;;;;;;;29.13;21.65;;;20.10;92.30;;;;;;5014141;28;20026;-77
2021/09/11 10:35:07;;;;;;;24.83;20.17;;;20.00;92.30;;;;;;5013872;28;20073;-77
2021/09/11 10:37:33;;;;;;;24.48;19.33;;;20.00;92.40;;;;;;5013730;28;20466;-78
2021/09/11 10:40:18;;;;;;;23.55;19.67;;;20.00;92.40;;;;;;5029016;28;20040;-78
2021/09/11 10:43:24;;;;;;;24.88;18.98;;;20.00;92.70;;;;;;5013772;28;20378;-77
2021/09/11 10:46:07;;;;;;;22.67;17.77;;;20.00;92.50;;;;;;5028834;28;20394;-77
2021/09/11 10:48:44;;;;;;;24.25;19.33;;;20.10;92.50;;;;;;5013531;28;20112;-78
2021/09/11 10:51:18;;;;;;;21.45;17.77;;;20.10;92.50;;;;;;5013284;28;20061;-78
2021/09/11 10:54:15;;;;;;;22.95;19.00;;;20.10;92.50;;;;;;5013014;28;20025;-78
2021/09/11 10:56:52;;;;;;;20.17;17.13;;;20.20;92.60;;;;;;5010550;28;20025;-77
2021/09/11 10:59:18;;;;;;;25.35;19.02;;;20.50;92.60;;;;;;5011552;28;20494;-78
2021/09/11 11:01:53;;;;;;;20.42;16.67;;;20.50;92.50;;;;;;5011400;28;20488;-79
2021/09/11 11:04:27;;;;;;;19.88;17.77;;;20.70;92.50;;;;;;5020274;28;20374;-78
2021/09/11 11:06:54;;;;;;;24.05;18.10;;;20.90;92.30;;;;;;5011890;28;20092;-84
2021/09/11 11:09:23;;;;;;;21.42;17.73;;;20.90;92.10;;;;;;5009023;28;20033;-81
2021/09/11 11:11:51;;;;;;;21.75;19.38;;;21.00;92.00;;;;;;5011679;28;20428;-83
2021/09/11 11:14:17;;;;;;;20.02;17.00;;;21.00;91.90;;;;;;5017290;28;20033;-83
2021/09/11 11:16:54;;;;;;;28.38;19.92;;;21.10;91.80;;;;;;5027906;28;20169;-83
2021/09/11 11:19:30;;;;;;;19.73;17.63;;;21.10;91.50;;;;;;5013336;28;20084;-84
2021/09/11 11:22:05;;;;;;;23.48;19.20;;;21.20;91.50;;;;;;5013072;28;20030;-82
2021/09/11 11:24:45;;;;;;;21.08;17.70;;;21.40;91.60;;;;;;5013305;28;20022;-77
2021/09/11 11:27:17;;;;;;;18.80;16.25;;;21.60;91.70;;;;;;5011333;28;20050;-81
2021/09/11 11:29:44;;;;;;;21.60;17.10;;;22.00;91.80;;;;;;5013276;28;20034;-80
2021/09/11 11:32:10;;;;;;;19.15;17.15;;;22.20;91.00;;;;;;5013251;28;20014;-84
2021/09/11 11:34:37;;;;;;;18.23;14.88;;;22.50;90.80;;;;;;5013224;28;20033;-78
2021/09/11 11:37:05;;;;;;;18.35;15.13;;;22.90;90.40;;;;;;5013198;28;20038;-83
2021/09/11 11:39:40;;;;;;;14.98;13.00;;;23.20;88.50;;;;;;5014906;28;20465;-81
2021/09/11 11:42:11;;;;;;;13.68;12.25;;;23.40;87.50;;;;;;5016660;28;20385;-82
2021/09/11 11:44:43;;;;;;;15.60;12.07;;;23.90;86.70;;;;;;5017153;28;20049;-77
2021/09/11 11:47:27;;;;;;;13.80;10.93;;;24.50;86.00;;;;;;5016955;28;20018;-81
2021/09/11 11:49:52;;;;;;;;;;;25.30;85.10;;;;;;5017323;28;20034;-81
2021/09/11 11:52:19;;;;;;;13.35;9.52;;;26.10;84.30;;;;;;5016806;28;20361;-77
2021/09/11 11:54:47;;;;;;;13.68;10.23;;;26.50;81.60;;;;;;5015367;28;20044;-80
2021/09/11 11:57:19;;;;;;;10.48;8.68;;;26.80;77.80;;;;;;5016660;28;20482;-81
2021/09/11 11:59:55;;;;;;;12.38;10.43;;;26.90;75.60;;;;;;5015406;28;20022;-77
2021/09/11 12:02:28;;;;;;;12.15;10.85;;;26.80;72.80;;;;;;5016162;28;20037;-84
2021/09/11 12:05:09;;;;;;;13.57;10.07;;;26.40;71.00;;;;;;5016513;28;20105;-80
2021/09/11 12:07:35;;;;;;;15.10;12.50;;;26.00;71.40;;;;;;5015532;28;20045;-81
2021/09/11 12:10:01;;;;;;;13.68;11.57;;;25.60;69.20;;;;;;5015104;28;20041;-81
2021/09/11 12:13:08;;;;;;;13.18;11.80;;;25.20;70.00;;;;;;5016530;28;20025;-79
2021/09/11 12:15:37;;;;;;;16.98;12.25;;;24.80;71.30;;;;;;5015108;28;20034;-81
2021/09/11 12:18:13;;;;;;;14.25;8.60;;;24.50;72.20;;;;;;5014542;28;20087;-82
2021/09/11 12:20:53;;;;;;;8.93;5.80;;;24.10;74.00;;;;;;5029535;28;20072;-79
2021/09/11 12:23:28;;;;;;;6.57;4.30;;;23.50;75.60;;;;;;5018523;28;20030;-79
2021/09/11 12:26:03;;;;;;;4.53;3.40;;;22.90;77.20;;;;;;5031126;28;20022;-80
2021/09/11 12:28:41;;;;;;;5.20;3.03;;;22.50;78.80;;;;;;5017513;28;20370;-79
2021/09/11 12:31:21;;;;;;;4.38;2.58;;;22.20;79.70;;;;;;5016451;28;20054;-79
2021/09/11 12:33:53;;;;;;;6.15;2.70;;;21.90;80.60;;;;;;5014534;28;20124;-79